createdAt,value
2019-05-16T00:01:09.368Z,67.36
2019-05-16T00:03:44.117Z,66.20
2019-05-16T00:06:18.331Z,66.78
2019-05-16T00:08:52.716Z,66.78
2019-05-16T00:11:28.125Z,67.34
2019-05-16T00:14:02.716Z,67.37
2019-05-16T00:16:38.024Z,67.36
2019-05-16T00:19:12.803Z,67.67
2019-05-16T00:21:45.865Z,67.15
2019-05-16T00:24:20.099Z,66.38
2019-05-16T00:26:54.671Z,66.05
2019-05-16T00:29:29.128Z,66.47
2019-05-16T00:32:04.748Z,66.70
2019-05-16T00:34:40.231Z,65.74
2019-05-16T00:37:18.014Z,66.51
2019-05-16T00:39:52.935Z,66.91
2019-05-16T00:42:28.605Z,66.37
2019-05-16T00:45:03.098Z,66.82
2019-05-16T00:47:39.075Z,67.22
2019-05-16T00:50:14.783Z,66.97
2019-05-16T00:52:49.228Z,66.97
2019-05-16T00:55:23.686Z,67.33
2019-05-16T00:57:58.664Z,67.30
2019-05-16T01:00:50.611Z,67.30
2019-05-16T01:03:25.131Z,67.40
2019-05-16T01:05:59.705Z,67.62
2019-05-16T01:08:34.133Z,67.51
2019-05-16T01:11:08.707Z,67.74
2019-05-16T01:13:44.258Z,67.79
2019-05-16T01:16:18.880Z,67.87
2019-05-16T01:18:53.291Z,66.59
2019-05-16T01:21:28.720Z,66.61
2019-05-16T01:24:01.858Z,66.61
2019-05-16T01:26:36.109Z,67.30
2019-05-16T01:29:11.859Z,67.77
2019-05-16T01:31:48.280Z,67.77
2019-05-16T01:34:22.256Z,68.04
2019-05-16T01:36:58.916Z,68.04
2019-05-16T01:39:32.885Z,67.79
2019-05-16T01:42:07.848Z,67.89
2019-05-16T01:44:41.889Z,67.50
2019-05-16T01:47:14.667Z,67.72
2019-05-16T01:49:48.957Z,67.00
2019-05-16T01:52:23.328Z,66.91
2019-05-16T01:54:58.744Z,67.13
2019-05-16T01:57:31.784Z,67.90
2019-05-16T02:00:08.391Z,67.84
2019-05-16T02:02:42.285Z,67.98
2019-05-16T02:05:18.765Z,68.18
2019-05-16T02:07:53.265Z,68.54
2019-05-16T02:10:28.423Z,68.54
2019-05-16T02:13:02.947Z,68.55
2019-05-16T02:15:38.286Z,68.64
2019-05-16T02:18:12.941Z,68.73
2019-05-16T02:20:47.859Z,68.34
2019-05-16T02:23:21.925Z,68.30
2019-05-16T02:25:57.976Z,68.03
2019-05-16T02:28:39.774Z,68.19
2019-05-16T02:31:11.999Z,68.19
2019-05-16T02:33:44.948Z,68.02
2019-05-16T02:36:21.658Z,68.29
2019-05-16T02:38:55.856Z,68.39
2019-05-16T02:41:31.144Z,68.48
2019-05-16T02:44:04.657Z,68.58
2019-05-16T02:46:41.868Z,68.84
2019-05-16T02:49:15.118Z,68.95
2019-05-16T02:51:51.139Z,69.26
2019-05-16T02:54:26.949Z,69.27
2019-05-16T02:57:02.353Z,69.67
2019-05-16T02:59:36.719Z,69.54
2019-05-16T03:02:12.319Z,69.67
2019-05-16T03:04:46.706Z,69.80
2019-05-16T03:07:36.580Z,69.91
2019-05-16T03:10:01.519Z,69.97
2019-05-16T03:12:36.270Z,70.28
2019-05-16T03:15:12.273Z,69.99
2019-05-16T03:17:46.945Z,70.05
2019-05-16T03:20:21.477Z,70.18
2019-05-16T03:23:01.910Z,70.18
2019-05-16T03:25:35.119Z,70.20
2019-05-16T03:28:11.161Z,70.22
2019-05-16T03:30:45.933Z,69.96
2019-05-16T03:33:30.223Z,69.98
2019-05-16T03:35:55.879Z,69.98
2019-05-16T03:38:30.948Z,70.16
2019-05-16T03:41:05.299Z,70.16
2019-05-16T03:43:41.206Z,70.37
2019-05-16T03:46:16.072Z,70.35
2019-05-16T03:48:52.050Z,69.85
2019-05-16T03:51:26.267Z,69.85
2019-05-16T03:54:02.802Z,70.09
2019-05-16T03:56:36.947Z,69.98
2019-05-16T03:59:11.286Z,69.89
2019-05-16T04:01:45.773Z,69.95
2019-05-16T04:04:21.011Z,69.88
2019-05-16T04:06:55.868Z,69.90
2019-05-16T04:09:31.439Z,70.21
2019-05-16T04:12:04.707Z,70.07
2019-05-16T04:14:41.035Z,70.38
2019-05-16T04:17:15.266Z,70.10
2019-05-16T04:19:50.860Z,70.17
2019-05-16T04:22:25.670Z,70.56
2019-05-16T04:25:01.940Z,70.56
2019-05-16T04:27:36.115Z,70.71
2019-05-16T04:30:11.896Z,70.90
2019-05-16T04:32:46.661Z,70.79
2019-05-16T04:35:21.623Z,70.73
2019-05-16T04:37:56.072Z,70.89
2019-05-16T04:40:31.137Z,70.87
2019-05-16T04:43:05.665Z,70.87
2019-05-16T04:45:41.373Z,71.17
2019-05-16T04:48:15.931Z,71.16
2019-05-16T04:50:51.586Z,70.98
2019-05-16T04:53:24.889Z,71.33
2019-05-16T04:56:01.400Z,71.32
2019-05-16T04:58:33.884Z,71.56
2019-05-16T05:01:07.085Z,71.66
2019-05-16T05:03:58.491Z,71.70
2019-05-16T05:06:15.885Z,71.34
2019-05-16T05:08:57.935Z,71.34
2019-05-16T05:11:25.935Z,71.74
2019-05-16T05:14:00.958Z,71.76
2019-05-16T05:16:35.769Z,71.38
2019-05-16T05:19:10.925Z,71.54
2019-05-16T05:21:45.568Z,71.44
2019-05-16T05:24:19.932Z,71.44
2019-05-16T05:26:54.267Z,71.20
2019-05-16T05:29:30.698Z,71.12
2019-05-16T05:32:05.399Z,71.20
2019-05-16T05:34:39.976Z,71.27
2019-05-16T05:37:14.320Z,71.01
2019-05-16T05:39:50.408Z,71.01
2019-05-16T05:42:24.878Z,71.25
2019-05-16T05:45:00.149Z,71.08
2019-05-16T05:47:33.656Z,70.81
2019-05-16T05:50:10.860Z,70.62
2019-05-16T05:52:46.291Z,70.44
2019-05-16T05:55:20.940Z,70.32
2019-05-16T05:57:53.855Z,70.33
2019-05-16T06:00:30.399Z,69.78
2019-05-16T06:03:04.259Z,70.07
2019-05-16T06:05:41.094Z,69.99
2019-05-16T06:08:14.933Z,70.36
2019-05-16T06:10:50.112Z,70.14
2019-05-16T06:13:23.938Z,70.14
2019-05-16T06:16:00.110Z,70.24
2019-05-16T06:18:32.656Z,70.41
2019-05-16T06:21:06.939Z,70.66
2019-05-16T06:23:40.304Z,70.71
2019-05-16T06:26:14.698Z,70.71
2019-05-16T06:28:50.415Z,70.45
2019-05-16T06:31:25.067Z,70.77
2019-05-16T06:34:06.887Z,70.81
2019-05-16T06:36:35.347Z,70.56
2019-05-16T06:39:11.443Z,70.56
2019-05-16T06:41:45.948Z,70.68
2019-05-16T06:44:20.387Z,70.75
2019-05-16T06:47:10.061Z,70.70
2019-05-16T06:49:30.945Z,70.78
2019-05-16T06:52:03.720Z,70.58
2019-05-16T06:54:40.555Z,70.33
2019-05-16T06:57:14.067Z,70.36
2019-05-16T06:59:50.014Z,69.99
2019-05-16T07:02:30.303Z,69.80
2019-05-16T07:05:01.275Z,69.80
2019-05-16T07:07:35.755Z,69.84
2019-05-16T07:10:10.653Z,69.82
2019-05-16T07:12:45.285Z,69.18
2019-05-16T07:15:20.861Z,69.18
2019-05-16T07:17:55.253Z,69.05
2019-05-16T07:20:30.176Z,69.49
2019-05-16T07:23:04.715Z,69.65
2019-05-16T07:25:40.745Z,69.67
2019-05-16T07:28:15.120Z,69.82
2019-05-16T07:30:50.058Z,69.31
2019-05-16T07:33:25.772Z,69.31
2019-05-16T07:36:00.507Z,69.68
2019-05-16T07:38:34.948Z,69.27
2019-05-16T07:41:11.155Z,69.22
2019-05-16T07:43:45.108Z,69.49
2019-05-16T07:46:20.573Z,69.62
2019-05-16T07:48:53.701Z,70.13
2019-05-16T07:51:27.945Z,70.29
2019-05-16T07:54:00.855Z,70.16
2019-05-16T07:56:35.111Z,70.18
2019-05-16T07:59:10.387Z,70.14
2019-05-16T08:01:44.916Z,70.12
2019-05-16T08:04:19.760Z,70.27
2019-05-16T08:06:53.689Z,70.38
2019-05-16T08:09:30.437Z,70.08
2019-05-16T08:12:05.872Z,70.24
2019-05-16T08:14:40.937Z,70.07
2019-05-16T08:17:15.288Z,70.04
2019-05-16T08:19:50.631Z,70.04
2019-05-16T08:22:25.301Z,70.01
2019-05-16T08:25:00.288Z,69.71
2019-05-16T08:27:34.876Z,69.80
2019-05-16T08:30:11.034Z,68.96
2019-05-16T08:32:45.309Z,69.30
2019-05-16T08:35:21.247Z,69.23
2019-05-16T08:37:55.955Z,68.99
2019-05-16T08:40:31.640Z,68.89
2019-05-16T08:43:04.816Z,68.40
2019-05-16T08:45:41.761Z,68.73
2019-05-16T08:48:14.939Z,68.75
2019-05-16T08:50:53.836Z,68.61
2019-05-16T08:53:24.787Z,68.46
2019-05-16T08:55:57.860Z,68.82
2019-05-16T08:58:33.244Z,68.45
2019-05-16T09:01:07.918Z,68.29
2019-05-16T09:03:42.277Z,68.70
2019-05-16T09:06:16.714Z,68.64
2019-05-16T09:08:51.427Z,69.00
2019-05-16T09:11:35.609Z,68.93
2019-05-16T09:14:02.016Z,68.40
2019-05-16T09:16:37.249Z,68.06
2019-05-16T09:19:11.869Z,68.74
2019-05-16T09:21:47.323Z,68.55
2019-05-16T09:24:20.702Z,68.41
2019-05-16T09:26:57.671Z,67.94
2019-05-16T09:29:29.655Z,67.69
2019-05-16T09:32:12.640Z,67.41
2019-05-16T09:34:40.950Z,67.88
2019-05-16T09:37:17.696Z,67.25
2019-05-16T09:39:51.610Z,67.02
2019-05-16T09:42:27.680Z,67.02
2019-05-16T09:45:00.639Z,66.39
2019-05-16T09:47:34.941Z,66.52
2019-05-16T09:50:12.574Z,66.61
2019-05-16T09:52:47.365Z,66.79
2019-05-16T09:55:22.262Z,66.86
2019-05-16T09:57:58.565Z,66.86
2019-05-16T10:00:33.585Z,66.34
2019-05-16T10:03:08.147Z,65.82
2019-05-16T10:05:42.653Z,66.43
2019-05-16T10:08:17.481Z,66.31
2019-05-16T10:10:52.987Z,66.04
2019-05-16T10:13:27.851Z,66.44
2019-05-16T10:16:02.633Z,66.87
2019-05-16T10:18:37.184Z,66.87
2019-05-16T10:21:11.665Z,66.88
2019-05-16T10:23:46.967Z,66.88
2019-05-16T10:26:21.712Z,66.93
2019-05-16T10:28:57.836Z,66.93
2019-05-16T10:31:45.068Z,66.91
2019-05-16T10:34:09.143Z,65.89
2019-05-16T10:36:43.352Z,65.23
2019-05-16T10:39:17.870Z,65.23
2019-05-16T10:41:52.319Z,66.12
2019-05-16T10:44:28.600Z,66.66
2019-05-16T10:47:03.111Z,65.48
2019-05-16T10:49:41.454Z,65.79
2019-05-16T10:52:16.433Z,65.97
2019-05-16T10:54:57.550Z,65.38
2019-05-16T10:57:29.380Z,65.71
2019-05-16T11:00:13.059Z,65.76
2019-05-16T11:02:38.702Z,65.11
2019-05-16T11:05:25.697Z,65.11
2019-05-16T11:07:52.316Z,64.77
2019-05-16T11:10:22.876Z,65.41
2019-05-16T11:12:59.503Z,63.94
2019-05-16T11:15:31.695Z,63.94
2019-05-16T11:18:06.862Z,63.92
2019-05-16T11:20:44.843Z,62.88
2019-05-16T11:23:23.435Z,62.88
2019-05-16T11:25:55.385Z,62.60
2019-05-16T11:28:29.713Z,62.60
2019-05-16T11:32:33.277Z,63.89
2019-05-16T11:35:08.287Z,63.88
2019-05-16T11:37:42.702Z,63.75
2019-05-16T11:40:17.940Z,64.17
2019-05-16T11:43:06.646Z,62.99
2019-05-16T11:45:28.316Z,62.86
2019-05-16T11:48:02.946Z,62.86
2019-05-16T11:50:37.468Z,62.90
2019-05-16T11:53:11.961Z,62.93
2019-05-16T11:55:54.765Z,63.07
2019-05-16T11:58:22.306Z,63.11
2019-05-16T12:00:57.546Z,64.07
2019-05-16T12:03:30.704Z,64.50
2019-05-16T12:06:05.521Z,64.22
2019-05-16T12:08:41.073Z,63.53
2019-05-16T12:11:17.672Z,63.18
2019-05-16T12:13:51.303Z,62.86
2019-05-16T12:16:27.594Z,62.86
2019-05-16T12:19:01.956Z,61.86
2019-05-16T12:21:34.867Z,61.40
2019-05-16T12:24:09.219Z,61.35
2019-05-16T12:26:43.642Z,60.82
2019-05-16T12:29:18.122Z,60.78
2019-05-16T12:31:57.831Z,60.70
2019-05-16T12:34:28.733Z,60.70
2019-05-16T12:37:03.101Z,61.13
2019-05-16T12:39:38.051Z,62.23
2019-05-16T12:42:12.593Z,62.16
2019-05-16T12:44:46.996Z,62.16
2019-05-16T12:47:21.491Z,62.35
2019-05-16T12:49:56.635Z,62.35
2019-05-16T12:52:29.705Z,62.23
2019-05-16T12:55:03.948Z,62.00
2019-05-16T12:57:38.235Z,62.55
2019-05-16T13:00:15.759Z,62.72
2019-05-16T13:02:51.105Z,63.17
2019-05-16T13:05:26.896Z,62.92
2019-05-16T13:08:01.319Z,62.78
2019-05-16T13:10:37.927Z,63.23
2019-05-16T13:13:12.725Z,63.62
2019-05-16T13:15:47.596Z,63.62
2019-05-16T13:18:21.630Z,63.51
2019-05-16T13:20:57.337Z,63.51
2019-05-16T13:23:31.940Z,63.39
2019-05-16T13:26:07.735Z,63.33
2019-05-16T13:28:42.119Z,63.93
2019-05-16T13:31:17.142Z,63.96
2019-05-16T13:33:51.770Z,63.96
2019-05-16T13:36:27.201Z,63.68
2019-05-16T13:39:01.709Z,63.34
2019-05-16T13:41:37.923Z,63.77
2019-05-16T13:44:18.356Z,63.73
2019-05-16T13:46:48.690Z,63.73
2019-05-16T13:49:23.117Z,63.60
2019-05-16T13:51:57.634Z,63.40
2019-05-16T13:54:32.280Z,63.40
2019-05-16T13:57:07.099Z,63.35
2019-05-16T13:59:41.628Z,63.89
2019-05-16T14:02:17.438Z,63.89
2019-05-16T14:04:51.938Z,63.92
2019-05-16T14:07:26.313Z,64.14
2019-05-16T14:10:00.721Z,64.93
2019-05-16T14:12:36.501Z,64.93
2019-05-16T14:15:10.865Z,65.17
2019-05-16T14:17:43.855Z,65.01
2019-05-16T14:20:18.859Z,65.20
2019-05-16T14:22:53.184Z,65.09
2019-05-16T14:25:27.658Z,64.83
2019-05-16T14:28:01.948Z,64.83
2019-05-16T14:30:37.291Z,64.32
2019-05-16T14:33:14.112Z,64.11
2019-05-16T14:35:47.383Z,63.97
2019-05-16T14:38:21.924Z,63.90
2019-05-16T14:40:57.311Z,63.82
2019-05-16T14:43:31.942Z,63.97
2019-05-16T14:46:09.372Z,63.49
2019-05-16T14:48:42.280Z,63.35
2019-05-16T14:51:17.944Z,63.41
2019-05-16T14:53:52.675Z,63.21
2019-05-16T14:56:27.601Z,63.59
2019-05-16T14:59:02.134Z,63.29
2019-05-16T15:01:37.877Z,63.65
2019-05-16T15:04:12.310Z,63.65
2019-05-16T15:06:47.131Z,63.26
2019-05-16T15:09:21.758Z,62.74
2019-05-16T15:11:57.886Z,62.13
2019-05-16T15:14:30.721Z,62.13
2019-05-16T15:17:07.057Z,61.56
2019-05-16T15:19:41.302Z,61.93
2019-05-16T15:22:16.801Z,62.31
2019-05-16T15:24:49.707Z,62.77
2019-05-16T15:27:26.239Z,62.50
2019-05-16T15:29:58.704Z,62.98
2019-05-16T15:32:33.284Z,62.98
2019-05-16T15:35:08.362Z,62.53
2019-05-16T15:37:43.285Z,63.55
2019-05-16T15:40:18.278Z,63.55
2019-05-16T15:42:52.939Z,63.65
2019-05-16T15:45:43.446Z,63.80
2019-05-16T15:48:17.218Z,62.99
2019-05-16T15:50:52.135Z,62.99
2019-05-16T15:53:28.005Z,62.94
2019-05-16T15:56:02.715Z,63.13
2019-05-16T15:58:37.394Z,63.13
2019-05-16T16:01:11.791Z,62.75
2019-05-16T16:03:47.378Z,62.63
2019-05-16T16:06:21.726Z,62.57
2019-05-16T16:08:54.673Z,62.57
2019-05-16T16:11:28.946Z,62.57
2019-05-16T16:14:03.286Z,62.51
2019-05-16T16:16:37.947Z,62.83
2019-05-16T16:19:12.643Z,63.03
2019-05-16T16:21:47.450Z,63.03
2019-05-16T16:24:22.935Z,63.31
2019-05-16T16:26:57.336Z,62.70
2019-05-16T16:29:33.208Z,62.79
2019-05-16T16:32:07.926Z,63.21
2019-05-16T16:34:41.086Z,63.64
2019-05-16T16:37:13.891Z,64.06
2019-05-16T16:39:47.268Z,64.46
2019-05-16T16:42:21.706Z,64.24
2019-05-16T16:44:56.568Z,64.00
2019-05-16T16:47:31.109Z,63.43
2019-05-16T16:50:07.878Z,63.08
2019-05-16T16:52:41.936Z,63.38
2019-05-16T16:55:16.965Z,63.61
2019-05-16T16:57:50.954Z,64.07
2019-05-16T17:00:24.295Z,63.52
2019-05-16T17:03:05.677Z,63.25
2019-05-16T17:05:37.029Z,63.21
2019-05-16T17:08:10.907Z,63.01
2019-05-16T17:10:44.079Z,63.12
2019-05-16T17:13:18.276Z,63.35
2019-05-16T17:15:52.760Z,63.75
2019-05-16T17:18:27.575Z,64.15
2019-05-16T17:21:02.244Z,64.55
2019-05-16T17:23:37.130Z,63.27
2019-05-16T17:26:11.681Z,63.95
2019-05-16T17:28:46.815Z,63.95
2019-05-16T17:31:22.260Z,64.20
2019-05-16T17:33:57.723Z,64.53
2019-05-16T17:36:32.290Z,64.08
2019-05-16T17:39:07.934Z,64.04
2019-05-16T17:41:42.284Z,64.30
2019-05-16T17:44:17.692Z,64.71
2019-05-16T17:46:53.000Z,65.05
2019-05-16T17:49:27.653Z,65.39
2019-05-16T17:52:02.138Z,65.39
2019-05-16T17:54:37.341Z,65.65
2019-05-16T17:57:11.954Z,65.36
2019-05-16T17:59:47.988Z,65.47
2019-05-16T18:02:22.800Z,65.97
2019-05-16T18:04:57.116Z,65.97
2019-05-16T18:07:31.804Z,66.41
2019-05-16T18:10:07.262Z,66.64
2019-05-16T18:12:40.935Z,66.54
2019-05-16T18:15:15.716Z,66.40
2019-05-16T18:17:50.276Z,66.43
2019-05-16T18:20:26.593Z,66.40
2019-05-16T18:23:00.898Z,66.67
2019-05-16T18:25:36.362Z,67.01
2019-05-16T18:28:09.950Z,67.26
2019-05-16T18:30:42.871Z,67.74
2019-05-16T18:33:17.132Z,67.71
2019-05-16T18:35:51.692Z,67.66
2019-05-16T18:38:26.494Z,67.66
2019-05-16T18:41:01.294Z,67.37
2019-05-16T18:43:36.432Z,67.32
2019-05-16T18:46:11.143Z,67.41
2019-05-16T18:48:47.146Z,67.64
2019-05-16T18:51:22.001Z,67.64
2019-05-16T18:53:57.033Z,67.91
2019-05-16T18:56:31.698Z,67.81
2019-05-16T18:59:06.285Z,67.81
2019-05-16T19:01:40.762Z,67.67
2019-05-16T19:04:13.799Z,67.48
2019-05-16T19:06:48.286Z,67.57
2019-05-16T19:09:22.794Z,67.89
2019-05-16T19:11:59.270Z,68.16
2019-05-16T19:14:33.265Z,68.00
2019-05-16T19:17:20.729Z,68.33
2019-05-16T19:19:43.798Z,67.63
2019-05-16T19:22:18.292Z,67.63
2019-05-16T19:24:52.715Z,67.85
2019-05-16T19:27:26.213Z,68.18
2019-05-16T19:30:01.718Z,67.89
2019-05-16T19:32:39.621Z,68.28
2019-05-16T19:35:16.336Z,68.04
2019-05-16T19:37:50.298Z,67.79
2019-05-16T19:40:25.265Z,67.88
2019-05-16T19:42:59.728Z,67.94
2019-05-16T19:45:32.869Z,68.09
2019-05-16T19:48:07.648Z,68.06
2019-05-16T19:50:42.283Z,68.46
2019-05-16T19:53:16.738Z,68.53
2019-05-16T19:55:51.289Z,68.52
2019-05-16T19:58:26.635Z,68.82
2019-05-16T20:00:59.914Z,68.75
2019-05-16T20:03:32.764Z,68.51
2019-05-16T20:06:07.677Z,68.57
2019-05-16T20:08:43.294Z,68.87
2019-05-16T20:11:17.957Z,68.92
2019-05-16T20:13:52.300Z,68.92
2019-05-16T20:16:27.281Z,68.91
2019-05-16T20:19:02.163Z,69.02
2019-05-16T20:21:37.060Z,69.23
2019-05-16T20:24:11.675Z,69.11
2019-05-16T20:26:46.720Z,69.11
2019-05-16T20:29:19.868Z,69.29
2019-05-16T20:31:56.427Z,68.99
2019-05-16T20:34:30.409Z,68.84
2019-05-16T20:37:06.109Z,68.92
2019-05-16T20:39:41.292Z,69.04
2019-05-16T20:42:17.092Z,69.22
2019-05-16T20:44:51.653Z,69.26
2019-05-16T20:47:27.168Z,69.26
2019-05-16T20:50:01.703Z,69.28
2019-05-16T20:52:37.932Z,69.38
2019-05-16T20:55:12.947Z,69.25
2019-05-16T20:57:48.461Z,69.25
2019-05-16T21:00:23.544Z,69.63
2019-05-16T21:02:57.960Z,70.02
2019-05-16T21:05:32.214Z,70.02
2019-05-16T21:08:06.932Z,69.96
2019-05-16T21:10:46.350Z,69.87
2019-05-16T21:13:20.138Z,69.82
2019-05-16T21:15:54.877Z,69.77
2019-05-16T21:18:29.285Z,69.75
2019-05-16T21:21:03.784Z,69.75
2019-05-16T21:23:38.143Z,69.73
2019-05-16T21:26:12.667Z,69.69
2019-05-16T21:28:47.084Z,69.70
2019-05-16T21:31:21.688Z,69.74
2019-05-16T21:33:56.538Z,69.75
2019-05-16T21:36:31.286Z,69.81
2019-05-16T21:39:08.595Z,70.02
2019-05-16T21:41:41.707Z,70.04
2019-05-16T21:44:17.097Z,70.15
2019-05-16T21:46:53.503Z,70.15
2019-05-16T21:49:27.959Z,70.27
2019-05-16T21:52:02.282Z,70.32
2019-05-16T21:54:36.895Z,70.28
2019-05-16T21:57:10.036Z,70.42
2019-05-16T21:59:44.262Z,70.43
2019-05-16T22:02:18.898Z,70.73
2019-05-16T22:04:53.348Z,70.44
2019-05-16T22:07:33.596Z,70.44
2019-05-16T22:10:06.315Z,70.36
2019-05-16T22:12:41.962Z,70.30
2019-05-16T22:15:17.308Z,70.52
2019-05-16T22:17:53.125Z,70.58
2019-05-16T22:20:27.891Z,70.64
2019-05-16T22:23:02.286Z,70.54
2019-05-16T22:25:37.922Z,70.56
2019-05-16T22:28:12.284Z,70.68
2019-05-16T22:30:46.755Z,70.65
2019-05-16T22:33:21.276Z,70.76
2019-05-16T22:35:57.629Z,70.77
2019-05-16T22:38:31.961Z,70.83
2019-05-16T22:41:07.331Z,70.79
2019-05-16T22:43:42.360Z,70.78
2019-05-16T22:46:17.775Z,70.72
2019-05-16T22:48:52.719Z,70.70
2019-05-16T22:51:27.329Z,70.75
2019-05-16T22:54:01.900Z,70.71
2019-05-16T22:56:37.563Z,70.69
2019-05-16T22:59:12.283Z,70.74
2019-05-16T23:01:46.797Z,70.76
2019-05-16T23:04:19.880Z,70.77
2019-05-16T23:06:52.705Z,70.79
2019-05-16T23:09:27.304Z,70.79
2019-05-16T23:12:01.960Z,70.80
2019-05-16T23:14:36.280Z,70.94
2019-05-16T23:17:11.287Z,71.06
2019-05-16T23:19:47.431Z,71.03
2019-05-16T23:22:22.265Z,70.98
2019-05-16T23:24:58.176Z,70.98
2019-05-16T23:27:32.659Z,71.04
2019-05-16T23:30:08.126Z,70.78
2019-05-16T23:32:42.705Z,70.78
2019-05-16T23:35:17.310Z,70.92
2019-05-16T23:37:51.709Z,70.91
2019-05-16T23:40:24.864Z,70.46
2019-05-16T23:42:59.403Z,70.43
2019-05-16T23:45:34.124Z,70.75
2019-05-16T23:48:10.357Z,70.44
2019-05-16T23:50:47.325Z,70.44
2019-05-16T23:53:21.297Z,70.21
2019-05-16T23:55:56.761Z,70.13
2019-05-16T23:58:31.263Z,70.33
